BrazilFixed distance
WTR Serra do Mar
23 Nov2019
Distance
52km
Finishers
7760 men17 women
Winning time
5:49:34h
Median pace
5.24km/h
Pace distribution
77 finishers · 4.25–8.93 km/h · mean 5.49
Every finisher ran the same 52 km course, so these paces are directly comparable.
Histogram of finisher pace. 77 finishers ranged from 4.25 to 8.93 kilometres per hour, with a mean of 5.49 and a median of 5.24. The busiest band is 5.0 to 5.5 kilometres per hour, with 27 finishers.
Results
Ranks 1–50 of 77
| Rank | Runner | Time | Pace | Cat. | Placing |
|---|---|---|---|---|---|
| 1 | Clube Dom Pedro Ii Wtr... | 5:49:34h | 8.93 | M40 | 1st M · 1st M40 |
| 2 | Team Carius | 5:55:42h | 8.77 | M35 | 2nd M · 1st M35 |
| 3 | Rf Sports Team | 5:59:31h | 8.68 | M40 | 3rd M · 2nd M40 |
| 4 | Salomon Teamcarlos Ven... | 6:23:16h | 8.14 | MU23 | 4th M · 1st MU23 |
| 5 | Running Monster | 7:09:15h | 7.27 | M35 | 5th M · 2nd M35 |
| 6 | Timeiaza | 7:22:24h | 7.05 | W40 | 1st F · 1st W40 |
| 7 | Bh Trail Run | 7:29:49h | 6.94 | W40 | 2nd F · 2nd W40 |
| 8 | Walter Tuche - Motus Team | 7:35:55h | 6.84 | M23 | 6th M · 1st M23 |
| 9 | Running Monster | 7:51:22h | 6.62 | M40 | 7th M · 3rd M40 |
| 10 | Lobos Adventure | 7:55:14h | 6.57 | M23 | 8th M · 2nd M23 |
| 11 | Lobos Adventure | 8:00:04h | 6.50 | M23 | 9th M · 3rd M23 |
| 12 | 4Xteam | 8:03:47h | 6.45 | M35 | 10th M · 3rd M35 |
| 13 | Run Team Fisiomaster | 8:16:22h | 6.29 | W45 | 3rd F · 1st W45 |
| 14 | Luiz Bastos Performanc... | 8:17:54h | 6.27 | M23 | 11th M · 4th M23 |
| 15 | Lobos Adventure | 8:21:24h | 6.22 | M23 | 12th M · 5th M23 |
| 16 | The North Face - Excee... | 8:22:36h | 6.21 | W40 | 4th F · 3rd W40 |
| 17 | Carlos Venturini | 8:22:41h | 6.21 | M40 | 13th M · 4th M40 |
| 18 | Lobos Adventure | 8:26:31h | 6.16 | M45 | 14th M · 1st M45 |
| 19 | Bhtrailrun | 8:48:53h | 5.90 | M35 | 15th M · 4th M35 |
| 20 | Equipe Rox | 8:51:20h | 5.87 | M40 | 16th M · 5th M40 |
| 21 | Bpm Esportes | 8:53:06h | 5.85 | M45 | 17th M · 2nd M45 |
| 22 | Lobos Adventure | 8:55:48h | 5.82 | M23 | 18th M · 6th M23 |
| 23 | Lobos Adventure | 9:04:59h | 5.72 | M45 | 19th M · 3rd M45 |
| 24 | Equipe 2Anjos | 9:17:54h | 5.59 | M35 | 20th M · 5th M35 |
| 25 | Mlimixrun | 9:20:20h | 5.57 | M40 | 21st M · 6th M40 |
| 26 | Lobos Adventure | 9:20:59h | 5.56 | W40 | 5th F · 4th W40 |
| 27 | Fmacbat | 9:33:16h | 5.44 | M50 | 22nd M · 1st M50 |
| 28 | Ml Mix Run | 9:35:07h | 5.42 | W50 | 6th F · 1st W50 |
| 29 | Avulso | 9:36:05h | 5.42 | M40 | 23rd M · 7th M40 |
| 30 | Papo De Corrida | 9:36:25h | 5.41 | M23 | 24th M · 7th M23 |
| 31 | Assessoria Andre Caval... | 9:36:53h | 5.41 | M40 | 25th M · 8th M40 |
| 32 | Bfteam | 9:37:17h | 5.41 | M50 | 26th M · 2nd M50 |
| 33 | Japi Trail | 9:45:08h | 5.33 | W45 | 7th F · 2nd W45 |
| 34 | Avulso | 9:47:01h | 5.32 | M35 | 27th M · 6th M35 |
| 35 | Rocharunners | 9:48:12h | 5.30 | M55 | 28th M · 1st M55 |
| 36 | Team Carius | 9:51:47h | 5.27 | W50 | 8th F · 2nd W50 |
| 37 | Lobos Adventure | 9:52:38h | 5.26 | M23 | 29th M · 8th M23 |
| 38 | Pela Valorizacao Da Vida | 9:54:54h | 5.25 | M45 | 30th M · 4th M45 |
| 39 | Race Apice | 9:55:23h | 5.24 | W35 | 9th F · 1st W35 |
| 40 | Morone | 9:57:24h | 5.22 | M45 | 31st M · 5th M45 |
| 41 | Minas Auto Escape | 9:58:05h | 5.22 | M45 | 32nd M · 6th M45 |
| 42 | Folego Zero | 9:59:14h | 5.21 | W40 | 10th F · 5th W40 |
| 43 | Agille | 10:06:06h | 5.15 | M50 | 33rd M · 3rd M50 |
| 44 | Avulso | 10:07:51h | 5.13 | M45 | 34th M · 7th M45 |
| 45 | Avulso | 10:07:51h | 5.13 | M35 | 34th M · 7th M35 |
| 46 | Avulso | 10:08:05h | 5.13 | M50 | 36th M · 4th M50 |
| 47 | Walter Tuche | 10:09:37h | 5.12 | M50 | 37th M · 5th M50 |
| 48 | Bh Trail Run Revista T... | 10:12:09h | 5.10 | M45 | 38th M · 8th M45 |
| 49 | @Fisio_Spa | 10:13:16h | 5.09 | W40 | 11th F · 6th W40 |
| 50 | Avulso | 10:19:13h | 5.04 | M45 | 39th M · 9th M45 |
- 1Clube Dom Pedro Ii Wtr...1st M · 1st M40Time5:49:34hPace8.93Cat.M40
- 2Team Carius2nd M · 1st M35Time5:55:42hPace8.77Cat.M35
- 3Rf Sports Team3rd M · 2nd M40Time5:59:31hPace8.68Cat.M40
- 4Salomon Teamcarlos Ven...4th M · 1st MU23Time6:23:16hPace8.14Cat.MU23
- 5Running Monster5th M · 2nd M35Time7:09:15hPace7.27Cat.M35
- 6Timeiaza1st F · 1st W40Time7:22:24hPace7.05Cat.W40
- 7Bh Trail Run2nd F · 2nd W40Time7:29:49hPace6.94Cat.W40
- 8Walter Tuche - Motus Team6th M · 1st M23Time7:35:55hPace6.84Cat.M23
- 9Running Monster7th M · 3rd M40Time7:51:22hPace6.62Cat.M40
- 10Lobos Adventure8th M · 2nd M23Time7:55:14hPace6.57Cat.M23
- 11Lobos Adventure9th M · 3rd M23Time8:00:04hPace6.50Cat.M23
- 124Xteam10th M · 3rd M35Time8:03:47hPace6.45Cat.M35
- 13Run Team Fisiomaster3rd F · 1st W45Time8:16:22hPace6.29Cat.W45
- 14Luiz Bastos Performanc...11th M · 4th M23Time8:17:54hPace6.27Cat.M23
- 15Lobos Adventure12th M · 5th M23Time8:21:24hPace6.22Cat.M23
- 16The North Face - Excee...4th F · 3rd W40Time8:22:36hPace6.21Cat.W40
- 17Carlos Venturini13th M · 4th M40Time8:22:41hPace6.21Cat.M40
- 18Lobos Adventure14th M · 1st M45Time8:26:31hPace6.16Cat.M45
- 19Bhtrailrun15th M · 4th M35Time8:48:53hPace5.90Cat.M35
- 20Equipe Rox16th M · 5th M40Time8:51:20hPace5.87Cat.M40
- 21Bpm Esportes17th M · 2nd M45Time8:53:06hPace5.85Cat.M45
- 22Lobos Adventure18th M · 6th M23Time8:55:48hPace5.82Cat.M23
- 23Lobos Adventure19th M · 3rd M45Time9:04:59hPace5.72Cat.M45
- 24Equipe 2Anjos20th M · 5th M35Time9:17:54hPace5.59Cat.M35
- 25Mlimixrun21st M · 6th M40Time9:20:20hPace5.57Cat.M40
- 26Lobos Adventure5th F · 4th W40Time9:20:59hPace5.56Cat.W40
- 27Fmacbat22nd M · 1st M50Time9:33:16hPace5.44Cat.M50
- 28Ml Mix Run6th F · 1st W50Time9:35:07hPace5.42Cat.W50
- 29Avulso23rd M · 7th M40Time9:36:05hPace5.42Cat.M40
- 30Papo De Corrida24th M · 7th M23Time9:36:25hPace5.41Cat.M23
- 31Assessoria Andre Caval...25th M · 8th M40Time9:36:53hPace5.41Cat.M40
- 32Bfteam26th M · 2nd M50Time9:37:17hPace5.41Cat.M50
- 33Japi Trail7th F · 2nd W45Time9:45:08hPace5.33Cat.W45
- 34Avulso27th M · 6th M35Time9:47:01hPace5.32Cat.M35
- 35Rocharunners28th M · 1st M55Time9:48:12hPace5.30Cat.M55
- 36Team Carius8th F · 2nd W50Time9:51:47hPace5.27Cat.W50
- 37Lobos Adventure29th M · 8th M23Time9:52:38hPace5.26Cat.M23
- 38Pela Valorizacao Da Vida30th M · 4th M45Time9:54:54hPace5.25Cat.M45
- 39Race Apice9th F · 1st W35Time9:55:23hPace5.24Cat.W35
- 40Morone31st M · 5th M45Time9:57:24hPace5.22Cat.M45
- 41Minas Auto Escape32nd M · 6th M45Time9:58:05hPace5.22Cat.M45
- 42Folego Zero10th F · 5th W40Time9:59:14hPace5.21Cat.W40
- 43Agille33rd M · 3rd M50Time10:06:06hPace5.15Cat.M50
- 44Avulso34th M · 7th M45Time10:07:51hPace5.13Cat.M45
- 45Avulso34th M · 7th M35Time10:07:51hPace5.13Cat.M35
- 46Avulso36th M · 4th M50Time10:08:05hPace5.13Cat.M50
- 47Walter Tuche37th M · 5th M50Time10:09:37hPace5.12Cat.M50
- 48Bh Trail Run Revista T...38th M · 8th M45Time10:12:09hPace5.10Cat.M45
- 49@Fisio_Spa11th F · 6th W40Time10:13:16hPace5.09Cat.W40
- 50Avulso39th M · 9th M45Time10:19:13hPace5.04Cat.M45
Showing ranks 1–50 of 77